Alzira, Spain
Current Conditions -  °F | °C
As of 7:30 AM on Saturday 25 Oct 2014 (Local Time) from LEVC Reporting Station
Clear Clear  
Wind Chill: 57°   Ceiling: Unl
Heat Index: 57°   Visibility: 6mi
Dew Point: 45°   Wind: 3mph
Humidity: 63%   Direction: 290°WNW
Pressure: 30.06"   Gusts: NA
Location:  39.15°N, 0.43°W
Report Text: LEVC 250530Z 29003KT CAVOK 14/07 Q1018 NOSIG
Loading
Personal Weather Stations






























Interactive Weather Map
Tropical Storm Tracking
New forecast layout! Learn more

10-Day Weather Forecast

Advertisements
Track Severe Weather on mobile